Oconto, WI

12:09 AM CDT on May 28, 2017 (GMT -0500)
Oconto Municipal

Weather History for KOCQ - March, 2014

Change the Weather History Date:

Sunday, March 23, 2014

  Actual Average Record
Temperature  
Mean Temperature 16 °F -  
Max Temperature 25 °F 41 °F 36 °F (2017)
Min Temperature 7 °F 21 °F 7 °F (2014)
Degree Days  
Heating Degree Days 50    
Moisture  
Dew Point 3 °F    
Average Humidity 58    
Maximum Humidity 79    
Minimum Humidity 38    
Precipitation  
Precipitation 0.00 in - - ()
Sea Level Pressure  
Sea Level Pressure 30.37 in    
Wind  
Wind Speed 6 mph (WNW)    
Max Wind Speed 10 mph    
Max Gust Speed 17 mph    
Visibility 10 miles    
Events      
Averages and records for this station are not official NWS values.
T = Trace of Precipitation, MM = Missing Value Source: NWS Daily Summary

Daily Weather History Graph

Daily Weather History Graph

Search for Another Location

Airport or City:

Trip Planner

Search our weather history database for the weather conditions in past years. The results will help you decide how hot, cold, wet, or windy it might be!

Date:

Astronomy

Mar. 23, 2014 Rise Set
Actual Time 6:49 AM CDT 7:07 PM CDT
Civil Twilight 6:19 AM CDT 7:37 PM CDT
Nautical Twilight 5:45 AM CDT 8:11 PM CDT
Astronomical Twilight 5:10 AM CDT 8:47 PM CDT
Moon 1:36 AM CDT (3/23) 11:17 AM CDT (3/23)
Length of Visible Light 13h 17m
Length of Day
12h 18m
Waning Gibbous, 54% of the Moon is Illuminated
Mar 23
Waning Gibbous
Mar 23
Last Quarter
Mar 30
New
Apr 7
First Quarter
Apr 15
Full

Hourly Weather History & Observations

Time (CDT) Temp. Windchill Dew Point Humidity Pressure Visibility Wind Dir Wind Speed Gust Speed Precip Events Conditions
12:15 AM 14.2 °F 4.1 °F 2.5 °F 60% 30.39 in 10.0 mi NNW 6.9 mph - N/A   Clear
12:35 AM 14.0 °F 6.5 °F 2.3 °F 60% 30.39 in 10.0 mi NW 4.6 mph - N/A   Clear
12:55 AM 13.1 °F 1.8 °F 2.3 °F 62% 30.39 in 10.0 mi NNW 8.1 mph - N/A   Clear
1:15 AM 13.3 °F 3.0 °F 2.3 °F 62% 30.39 in 10.0 mi NNW 6.9 mph - N/A   Clear
1:35 AM 12.7 °F 5.0 °F 2.1 °F 63% 30.40 in 10.0 mi NW 4.6 mph - N/A   Clear
1:55 AM 12.4 °F 3.1 °F 2.1 °F 64% 30.40 in 10.0 mi NNW 5.8 mph - N/A   Clear
2:15 AM 12.0 °F 4.1 °F 2.3 °F 65% 30.40 in 10.0 mi NW 4.6 mph - N/A   Clear
2:35 AM 11.7 °F 3.7 °F 2.3 °F 66% 30.40 in 10.0 mi WNW 4.6 mph - N/A   Clear
2:55 AM 10.8 °F 2.7 °F 1.9 °F 68% 30.40 in 10.0 mi WNW 4.6 mph - N/A   Clear
3:15 AM 10.4 °F 2.2 °F 2.1 °F 69% 30.40 in 10.0 mi West 4.6 mph - N/A   Clear
3:35 AM 10.2 °F 3.8 °F 2.7 °F 72% 30.40 in 10.0 mi WNW 3.5 mph - N/A   Clear
3:55 AM 10.0 °F 3.6 °F 2.7 °F 72% 30.40 in 10.0 mi WNW 3.5 mph - N/A   Clear
4:15 AM 9.0 °F 0.6 °F 2.3 °F 74% 30.40 in 10.0 mi West 4.6 mph - N/A   Clear
4:35 AM 8.6 °F 0.1 °F 2.5 °F 76% 30.40 in 10.0 mi West 4.6 mph - N/A   Clear
4:55 AM 7.9 °F -2.2 °F 2.3 °F 78% 30.41 in 10.0 mi West 5.8 mph - N/A   Clear
5:15 AM 7.7 °F -0.9 °F 2.3 °F 79% 30.41 in 10.0 mi West 4.6 mph - N/A   Clear
5:35 AM 7.7 °F -2.4 °F 2.3 °F 79% 30.41 in 10.0 mi West 5.8 mph - N/A   Clear
5:55 AM 7.5 °F -1.1 °F 2.3 °F 79% 30.41 in 10.0 mi WNW 4.6 mph - N/A   Clear
6:15 AM 7.5 °F -3.9 °F 2.3 °F 79% 30.42 in 10.0 mi West 6.9 mph - N/A   Clear
6:35 AM 7.2 °F -1.5 °F 1.9 °F 79% 30.42 in 10.0 mi WNW 4.6 mph - N/A   Clear
6:55 AM 7.2 °F -3.0 °F 1.9 °F 79% 30.42 in 10.0 mi WNW 5.8 mph - N/A   Clear
7:15 AM 7.3 °F -1.3 °F 1.9 °F 79% 30.42 in 10.0 mi WNW 4.6 mph - N/A   Clear
7:35 AM 7.9 °F -2.2 °F 2.1 °F 77% 30.42 in 10.0 mi WNW 5.8 mph - N/A   Clear
7:55 AM 8.6 °F -1.3 °F 2.3 °F 76% 30.42 in 10.0 mi WNW 5.8 mph - N/A   Clear
8:15 AM 9.5 °F 1.2 °F 2.3 °F 73% 30.42 in 10.0 mi WNW 4.6 mph - N/A   Clear
8:35 AM 10.8 °F 0.0 °F 1.8 °F 67% 30.42 in 10.0 mi WNW 6.9 mph - N/A   Clear
8:55 AM 11.3 °F 1.9 °F 2.1 °F 67% 30.42 in 10.0 mi NW 5.8 mph - N/A   Clear
9:15 AM 12.0 °F 0.5 °F 2.1 °F 65% 30.42 in 10.0 mi NW 8.1 mph - N/A   Clear
9:35 AM 12.9 °F 3.8 °F 2.3 °F 63% 30.42 in 10.0 mi NNW 5.8 mph - N/A   Clear
9:55 AM 13.6 °F 7.7 °F 2.3 °F 61% 30.43 in 10.0 mi NNW 3.5 mph - N/A   Clear
10:10 AM 14.4 °F 6.9 °F 2.8 °F 60% 30.43 in 10.0 mi WNW 4.6 mph - N/A   Clear
10:35 AM 15.1 °F 6.4 °F 2.8 °F 58% 30.42 in 10.0 mi NW 5.8 mph - N/A   Clear
10:55 AM 15.8 °F 7.2 °F 2.7 °F 56% 30.42 in 10.0 mi NNW 5.8 mph - N/A   Clear
11:15 AM 17.1 °F 8.7 °F 2.3 °F 52% 30.42 in 10.0 mi WNW 5.8 mph - N/A   Clear
11:35 AM 18.0 °F 8.7 °F 1.4 °F 48% 30.42 in 10.0 mi WNW 6.9 mph - N/A   Clear
11:55 AM 18.9 °F 9.8 °F 1.9 °F 48% 30.41 in 10.0 mi WNW 6.9 mph - N/A   Clear
12:10 PM 19.2 °F 10.2 °F 2.7 °F 49% 30.40 in 10.0 mi WNW 6.9 mph - N/A   Clear
12:35 PM 20.3 °F 11.5 °F 3.7 °F 49% 30.39 in 10.0 mi West 6.9 mph - N/A   Scattered Clouds
12:55 PM 20.5 °F 15.6 °F 3.0 °F 47% 30.39 in 10.0 mi West 3.5 mph 9.2 mph N/A   Scattered Clouds
1:15 PM 21.4 °F - 3.4 °F 46% 30.38 in 10.0 mi Calm Calm - N/A   Clear
1:35 PM 21.9 °F 11.0 °F 3.4 °F 45% 30.37 in 10.0 mi West 10.4 mph - N/A   Scattered Clouds
1:55 PM 22.5 °F 14.1 °F 4.5 °F 46% 30.36 in 10.0 mi WNW 6.9 mph 17.3 mph N/A   Mostly Cloudy
2:15 PM 22.6 °F 16.5 °F 2.1 °F 41% 30.35 in 10.0 mi West 4.6 mph - N/A   Mostly Cloudy
2:35 PM 23.7 °F 15.6 °F 3.0 °F 41% 30.35 in 10.0 mi WNW 6.9 mph - N/A   Mostly Cloudy
2:55 PM 23.2 °F 16.0 °F 2.3 °F 41% 30.34 in 10.0 mi NW 5.8 mph - N/A   Mostly Cloudy
3:15 PM 23.7 °F 14.0 °F 2.1 °F 39% 30.34 in 10.0 mi West 9.2 mph - N/A   Overcast
3:35 PM 23.0 °F 15.8 °F 2.5 °F 41% 30.33 in 10.0 mi WNW 5.8 mph - N/A   Mostly Cloudy
3:55 PM 23.0 °F 13.9 °F 3.4 °F 43% 30.32 in 10.0 mi West 8.1 mph - N/A   Overcast
4:15 PM 24.4 °F 17.5 °F 3.0 °F 40% 30.32 in 10.0 mi WNW 5.8 mph - N/A   Scattered Clouds
4:35 PM 24.4 °F 14.9 °F 1.9 °F 38% 30.32 in 10.0 mi West 9.2 mph - N/A   Mostly Cloudy
4:55 PM 24.8 °F 15.3 °F 2.8 °F 39% 30.32 in 10.0 mi West 9.2 mph - N/A   Mostly Cloudy
5:15 PM 24.4 °F 17.5 °F 2.1 °F 38% 30.32 in 10.0 mi WNW 5.8 mph 10.4 mph N/A   Mostly Cloudy
5:35 PM 24.8 °F 16.1 °F 4.1 °F 41% 30.31 in 10.0 mi West 8.1 mph - N/A   Mostly Cloudy
5:55 PM 24.4 °F 15.6 °F 4.5 °F 42% 30.32 in 10.0 mi WNW 8.1 mph - N/A   Overcast
6:15 PM 23.9 °F 16.8 °F 4.1 °F 43% 30.31 in 10.0 mi West 5.8 mph - N/A   Mostly Cloudy
6:35 PM 23.7 °F 14.7 °F 4.6 °F 44% 30.31 in 10.0 mi West 8.1 mph - N/A   Overcast
6:55 PM 22.8 °F 13.6 °F 6.4 °F 50% 30.31 in 10.0 mi West 8.1 mph - N/A   Overcast
7:15 PM 22.1 °F 13.7 °F 5.4 °F 49% 30.31 in 10.0 mi WSW 6.9 mph - N/A   Overcast
7:35 PM 21.2 °F 12.6 °F 5.7 °F 51% 30.32 in 10.0 mi WSW 6.9 mph - N/A   Scattered Clouds
7:55 PM 20.5 °F 11.7 °F 5.7 °F 53% 30.32 in 10.0 mi WSW 6.9 mph - N/A   Mostly Cloudy
8:15 PM 20.1 °F 12.3 °F 5.5 °F 53% 30.32 in 10.0 mi WSW 5.8 mph - N/A   Scattered Clouds
8:35 PM 19.8 °F 9.9 °F 5.9 °F 55% 30.32 in 10.0 mi West 8.1 mph - N/A   Scattered Clouds
8:55 PM 19.4 °F 7.9 °F 6.1 °F 56% 30.32 in 10.0 mi West 10.4 mph - N/A   Mostly Cloudy
9:15 PM 19.8 °F 9.1 °F 6.3 °F 56% 30.32 in 10.0 mi West 9.2 mph - N/A   Overcast
9:35 PM 19.2 °F 7.7 °F 5.9 °F 56% 30.32 in 10.0 mi West 10.4 mph - N/A   Overcast
9:55 PM 18.3 °F 8.2 °F 5.7 °F 58% 30.33 in 10.0 mi West 8.1 mph - N/A   Mostly Cloudy
10:15 PM 17.6 °F 7.3 °F 5.0 °F 58% 30.33 in 10.0 mi West 8.1 mph - N/A   Mostly Cloudy
10:35 PM 16.7 °F 7.2 °F 4.6 °F 59% 30.33 in 10.0 mi West 6.9 mph - N/A   Mostly Cloudy
10:55 PM 16.2 °F 6.5 °F 4.1 °F 59% 30.33 in 10.0 mi WNW 6.9 mph - N/A   Scattered Clouds
11:15 PM 16.0 °F 6.3 °F 3.7 °F 59% 30.33 in 10.0 mi WNW 6.9 mph - N/A   Clear
11:35 PM 15.3 °F 6.6 °F 3.7 °F 60% 30.33 in 10.0 mi West 5.8 mph - N/A   Clear
11:55 PM 14.4 °F 6.9 °F 3.7 °F 63% 30.33 in 10.0 mi West 4.6 mph - N/A   Clear